Time;durP1;ratioP1;P1;durP2;ratioP2;P2;SDS_P1;SDS_P2;PMS_P1;PMS_P2;Temp;Humidity;BMP_temperature;BMP_pressure;BME280_temperature;BME280_humidity;BME280_pressure;Samples;Min_cycle;Max_cycle;Signal;HPM_P1;HPM_P2
2023/04/06 00:00:34;;;;;;;1.50;1.50;;;;;;;;;;4963764;28;20194;-59
2023/04/06 00:03:00;;;;;;;1.40;1.40;;;;;;;;;;4974167;28;20259;-59
2023/04/06 00:05:27;;;;;;;1.73;1.70;;;;;;;;;;4972539;28;20214;-58
2023/04/06 00:07:55;;;;;;;1.40;1.40;;;;;;;;;;4973954;28;20255;-59
2023/04/06 00:10:21;;;;;;;1.50;1.50;;;;;;;;;;4977361;28;20237;-59
2023/04/06 00:12:47;;;;;;;1.30;1.30;;;;;;;;;;4978382;28;20237;-59
2023/04/06 00:15:13;;;;;;;1.40;1.40;;;;;;;;;;4968060;28;20261;-59
2023/04/06 00:17:39;;;;;;;1.80;1.70;;;;;;;;;;4975010;28;20186;-59
2023/04/06 00:20:06;;;;;;;1.90;1.80;;;;;;;;;;4968758;28;20845;-59
2023/04/06 00:22:32;;;;;;;1.90;1.80;;;;;;;;;;4952929;28;20936;-59
2023/04/06 00:24:58;;;;;;;1.90;1.80;;;;;;;;;;4972182;28;20672;-59
2023/04/06 00:27:24;;;;;;;2.00;1.90;;;;;;;;;;4974356;28;20190;-59
2023/04/06 00:29:50;;;;;;;1.90;1.80;;;;;;;;;;4973631;28;20201;-59
2023/04/06 00:32:16;;;;;;;2.00;1.90;;;;;;;;;;4972326;28;20219;-59
2023/04/06 00:34:42;;;;;;;2.17;2.07;;;;;;;;;;4977826;28;20191;-59
2023/04/06 00:37:08;;;;;;;1.10;1.10;;;;;;;;;;4971401;28;20193;-59
2023/04/06 00:39:34;;;;;;;1.10;1.10;;;;;;;;;;4978185;28;20241;-59
2023/04/06 00:42:12;;;;;;;1.23;1.23;;;;;;;;;;4968440;28;20313;-59
2023/04/06 00:44:38;;;;;;;1.33;1.33;;;;;;;;;;4969470;28;20201;-59
2023/04/06 00:47:04;;;;;;;1.40;1.40;;;;;;;;;;4970574;28;20187;-59
2023/04/06 00:49:30;;;;;;;1.43;1.43;;;;;;;;;;4969789;28;20194;-59
2023/04/06 00:51:56;;;;;;;1.50;1.50;;;;;;;;;;4970968;28;20474;-58
2023/04/06 00:54:22;;;;;;;1.50;1.50;;;;;;;;;;4978260;28;20547;-59
2023/04/06 00:56:48;;;;;;;1.53;1.53;;;;;;;;;;4974503;28;20269;-59
2023/04/06 00:59:14;;;;;;;1.53;1.53;;;;;;;;;;4976866;28;20277;-58
2023/04/06 01:01:40;;;;;;;1.93;1.83;;;;;;;;;;4967212;28;20850;-59
2023/04/06 01:04:06;;;;;;;2.00;1.90;;;;;;;;;;4973265;28;20191;-59
2023/04/06 01:06:32;;;;;;;1.77;1.70;;;;;;;;;;4976503;28;20273;-59
2023/04/06 01:08:58;;;;;;;1.93;1.83;;;;;;;;;;4975918;28;20275;-59
2023/04/06 01:11:23;;;;;;;1.80;1.70;;;;;;;;;;4973898;28;20199;-59
2023/04/06 01:13:49;;;;;;;1.83;1.77;;;;;;;;;;4977543;28;20260;-59
2023/04/06 01:16:15;;;;;;;1.73;1.70;;;;;;;;;;4973231;28;20214;-59
2023/04/06 01:18:42;;;;;;;1.97;1.87;;;;;;;;;;4975125;28;20197;-59
2023/04/06 01:21:08;;;;;;;1.90;1.80;;;;;;;;;;4973114;28;20845;-59
2023/04/06 01:23:35;;;;;;;2.00;1.90;;;;;;;;;;4972745;28;20185;-59
2023/04/06 01:26:00;;;;;;;2.33;2.23;;;;;;;;;;4974996;28;20196;-58
2023/04/06 01:28:27;;;;;;;2.17;2.07;;;;;;;;;;4976268;28;20199;-59
2023/04/06 01:30:52;;;;;;;2.00;1.90;;;;;;;;;;4972893;28;20281;-59
2023/04/06 01:33:18;;;;;;;2.10;2.00;;;;;;;;;;4967741;28;22263;-59
2023/04/06 01:35:45;;;;;;;1.90;1.80;;;;;;;;;;4968051;28;20577;-58
2023/04/06 01:38:11;;;;;;;2.07;1.97;;;;;;;;;;4974226;28;20242;-59
2023/04/06 01:40:37;;;;;;;2.27;2.17;;;;;;;;;;4977704;28;20238;-58
2023/04/06 01:43:03;;;;;;;1.93;1.83;;;;;;;;;;4976757;28;20182;-58
2023/04/06 01:45:29;;;;;;;1.90;1.80;;;;;;;;;;4973284;28;20229;-59
2023/04/06 01:47:55;;;;;;;1.70;1.70;;;;;;;;;;4975246;28;20192;-59
2023/04/06 01:50:21;;;;;;;1.60;1.60;;;;;;;;;;4952503;28;20216;-59
2023/04/06 01:52:47;;;;;;;2.20;2.10;;;;;;;;;;4973432;28;20190;-59
2023/04/06 01:55:13;;;;;;;1.90;1.80;;;;;;;;;;4975740;28;20317;-59
2023/04/06 01:57:38;;;;;;;1.70;1.70;;;;;;;;;;4974840;28;20187;-59
2023/04/06 02:00:05;;;;;;;1.90;1.80;;;;;;;;;;4975934;28;20199;-59
2023/04/06 02:02:31;;;;;;;1.87;1.77;;;;;;;;;;4972987;28;20186;-58
2023/04/06 02:04:57;;;;;;;1.57;1.57;;;;;;;;;;4975615;28;20202;-59
2023/04/06 02:07:23;;;;;;;1.40;1.40;;;;;;;;;;4969405;28;20240;-58
2023/04/06 02:09:58;;;;;;;1.30;1.30;;;;;;;;;;5075429;27;20620;-50
2023/04/06 02:12:24;;;;;;;1.50;1.50;;;;;;;;;;5068901;28;20711;-51
2023/04/06 02:14:51;;;;;;;1.50;1.50;;;;;;;;;;5068126;28;20278;-50
2023/04/06 02:17:17;;;;;;;1.90;1.80;;;;;;;;;;5054072;28;20199;-50
2023/04/06 02:19:42;;;;;;;1.70;1.70;;;;;;;;;;5070627;28;20179;-49
2023/04/06 02:22:09;;;;;;;1.90;1.80;;;;;;;;;;5068704;28;20184;-51
2023/04/06 02:24:36;;;;;;;1.83;1.73;;;;;;;;;;5066677;28;20184;-51
2023/04/06 02:27:02;;;;;;;1.83;1.73;;;;;;;;;;5066506;28;20183;-51
2023/04/06 02:29:28;;;;;;;1.80;1.70;;;;;;;;;;5062214;28;21274;-50
2023/04/06 02:31:54;;;;;;;2.00;1.90;;;;;;;;;;5072289;28;20190;-51
2023/04/06 02:34:20;;;;;;;2.07;1.97;;;;;;;;;;5066547;28;20723;-50
2023/04/06 02:36:46;;;;;;;1.90;1.80;;;;;;;;;;5063293;28;20183;-51
2023/04/06 02:39:12;;;;;;;1.97;1.87;;;;;;;;;;5071163;28;20187;-53
2023/04/06 02:41:39;;;;;;;2.00;1.90;;;;;;;;;;5062010;28;20194;-50
2023/04/06 02:44:08;;;;;;;1.90;1.80;;;;;;;;;;5070839;28;20191;-53
2023/04/06 02:46:34;;;;;;;2.20;2.10;;;;;;;;;;5067121;28;20183;-53
2023/04/06 02:49:01;;;;;;;2.10;2.00;;;;;;;;;;5065436;28;20621;-53
2023/04/06 02:51:27;;;;;;;2.07;1.97;;;;;;;;;;5067624;28;20219;-53
2023/04/06 02:53:53;;;;;;;1.70;1.70;;;;;;;;;;5068619;28;20187;-52
2023/04/06 02:56:20;;;;;;;1.50;1.50;;;;;;;;;;5063748;28;20278;-52
2023/04/06 02:58:47;;;;;;;1.40;1.40;;;;;;;;;;5066429;28;20226;-52
2023/04/06 03:01:12;;;;;;;1.20;1.20;;;;;;;;;;5061617;28;20707;-56
2023/04/06 03:03:38;;;;;;;1.40;1.40;;;;;;;;;;5071386;28;20267;-53
2023/04/06 03:06:05;;;;;;;1.40;1.40;;;;;;;;;;5068237;28;20261;-52
2023/04/06 03:08:31;;;;;;;1.30;1.30;;;;;;;;;;5067273;28;20235;-52
2023/04/06 03:10:56;;;;;;;1.50;1.50;;;;;;;;;;5065421;28;20694;-52
2023/04/06 03:13:22;;;;;;;1.40;1.40;;;;;;;;;;5069139;28;20289;-54
2023/04/06 03:15:48;;;;;;;1.10;1.10;;;;;;;;;;5069437;28;20655;-58
2023/04/06 03:18:14;;;;;;;1.37;1.37;;;;;;;;;;5066030;28;20289;-53
2023/04/06 03:20:40;;;;;;;1.30;1.30;;;;;;;;;;5061025;28;20423;-57
2023/04/06 03:23:06;;;;;;;1.60;1.60;;;;;;;;;;5054143;28;20191;-54
2023/04/06 03:25:32;;;;;;;1.30;1.30;;;;;;;;;;5054520;28;20191;-54
2023/04/06 03:27:59;;;;;;;1.50;1.50;;;;;;;;;;5054120;28;20200;-54
2023/04/06 03:30:26;;;;;;;1.43;1.43;;;;;;;;;;5055224;28;20227;-55
2023/04/06 03:32:52;;;;;;;1.33;1.33;;;;;;;;;;5051903;28;20790;-54
2023/04/06 03:35:18;;;;;;;1.30;1.30;;;;;;;;;;5053696;28;20256;-52
2023/04/06 03:37:45;;;;;;;1.20;1.20;;;;;;;;;;5050365;28;20321;-53
2023/04/06 03:40:11;;;;;;;1.20;1.20;;;;;;;;;;5052762;28;20184;-52
2023/04/06 03:42:37;;;;;;;0.90;0.90;;;;;;;;;;5052882;28;20568;-52
2023/04/06 03:45:03;;;;;;;1.10;1.10;;;;;;;;;;5052017;28;20191;-55
2023/04/06 03:47:29;;;;;;;1.20;1.20;;;;;;;;;;5053034;28;20242;-52
2023/04/06 03:49:55;;;;;;;1.30;1.30;;;;;;;;;;5054301;28;20222;-52
2023/04/06 03:52:22;;;;;;;1.30;1.30;;;;;;;;;;5048901;28;20211;-52
2023/04/06 03:54:49;;;;;;;1.57;1.57;;;;;;;;;;5053805;28;20198;-55
2023/04/06 03:57:15;;;;;;;1.97;1.87;;;;;;;;;;5051674;28;20667;-55
2023/04/06 03:59:41;;;;;;;1.83;1.73;;;;;;;;;;5054236;28;20223;-55
2023/04/06 04:02:07;;;;;;;1.63;1.63;;;;;;;;;;5047496;28;20222;-55
2023/04/06 04:04:33;;;;;;;1.50;1.50;;;;;;;;;;5050688;28;20199;-55
2023/04/06 04:06:59;;;;;;;1.20;1.20;;;;;;;;;;5037997;28;20192;-55
2023/04/06 04:09:25;;;;;;;1.40;1.40;;;;;;;;;;5047878;28;20266;-55
2023/04/06 04:11:51;;;;;;;1.40;1.40;;;;;;;;;;5055401;28;20275;-55
2023/04/06 04:14:17;;;;;;;1.30;1.30;;;;;;;;;;5049231;28;20191;-55
2023/04/06 04:16:43;;;;;;;1.50;1.50;;;;;;;;;;5051832;28;20215;-54
2023/04/06 04:19:09;;;;;;;1.40;1.40;;;;;;;;;;5050281;28;20390;-55
2023/04/06 04:21:42;;;;;;;1.60;1.60;;;;;;;;;;5054037;28;20195;-55
2023/04/06 04:24:08;;;;;;;1.30;1.30;;;;;;;;;;5052074;28;20280;-55
2023/04/06 04:26:34;;;;;;;1.33;1.33;;;;;;;;;;5058498;28;20261;-55
2023/04/06 04:29:00;;;;;;;1.40;1.40;;;;;;;;;;5048613;28;20310;-55
2023/04/06 04:31:26;;;;;;;1.60;1.60;;;;;;;;;;5050316;28;20256;-55
2023/04/06 04:33:52;;;;;;;1.50;1.50;;;;;;;;;;5052787;28;20880;-55
2023/04/06 04:36:18;;;;;;;1.67;1.67;;;;;;;;;;5047966;28;20188;-55
2023/04/06 04:38:44;;;;;;;1.90;1.80;;;;;;;;;;5052001;28;20258;-55
2023/04/06 04:41:10;;;;;;;2.03;1.93;;;;;;;;;;5053761;28;20262;-55
2023/04/06 04:43:36;;;;;;;1.90;1.80;;;;;;;;;;5051191;28;20534;-54
2023/04/06 04:46:03;;;;;;;2.80;2.70;;;;;;;;;;5047402;28;20243;-55
2023/04/06 04:48:29;;;;;;;2.30;2.20;;;;;;;;;;5050973;28;20577;-55
2023/04/06 04:50:55;;;;;;;1.47;1.47;;;;;;;;;;5048499;28;20729;-55
2023/04/06 04:53:21;;;;;;;1.20;1.20;;;;;;;;;;5046431;28;20190;-54
2023/04/06 04:55:47;;;;;;;1.10;1.10;;;;;;;;;;5051582;28;20235;-55
2023/04/06 04:58:18;;;;;;;1.07;1.07;;;;;;;;;;5036891;28;20193;-55
2023/04/06 05:00:44;;;;;;;1.10;1.10;;;;;;;;;;5036995;28;20250;-55
2023/04/06 05:03:11;;;;;;;1.10;1.10;;;;;;;;;;5046256;28;20614;-55
2023/04/06 05:05:37;;;;;;;1.10;1.10;;;;;;;;;;5033273;28;20663;-54
2023/04/06 05:08:04;;;;;;;1.00;1.00;;;;;;;;;;5049633;28;20649;-55
2023/04/06 05:10:30;;;;;;;1.10;1.10;;;;;;;;;;5038290;28;20287;-55
2023/04/06 05:12:56;;;;;;;1.00;1.00;;;;;;;;;;5046231;28;20190;-55
2023/04/06 05:15:22;;;;;;;1.10;1.10;;;;;;;;;;5044069;28;20294;-55
2023/04/06 05:17:48;;;;;;;1.23;1.23;;;;;;;;;;5052388;28;20294;-55
2023/04/06 05:20:14;;;;;;;1.07;1.07;;;;;;;;;;5045218;28;20188;-55
2023/04/06 05:22:40;;;;;;;1.00;1.00;;;;;;;;;;5063447;28;20661;-55
2023/04/06 05:25:06;;;;;;;1.10;1.10;;;;;;;;;;5050895;28;20242;-56
2023/04/06 05:27:32;;;;;;;1.20;1.20;;;;;;;;;;5055876;28;20675;-55
2023/04/06 05:29:58;;;;;;;1.00;1.00;;;;;;;;;;5044807;28;20212;-55
2023/04/06 05:32:24;;;;;;;1.17;1.17;;;;;;;;;;5041481;28;20187;-55
2023/04/06 05:34:50;;;;;;;0.90;0.90;;;;;;;;;;5046304;28;20196;-55
2023/04/06 05:37:16;;;;;;;1.00;1.00;;;;;;;;;;5054380;28;20880;-55
2023/04/06 05:39:42;;;;;;;1.10;1.10;;;;;;;;;;5048608;28;20195;-56
2023/04/06 05:42:08;;;;;;;1.03;1.03;;;;;;;;;;5045589;28;20218;-55
2023/04/06 05:44:35;;;;;;;0.90;0.90;;;;;;;;;;5051074;28;20747;-54
2023/04/06 05:47:01;;;;;;;1.00;1.00;;;;;;;;;;5050919;28;20190;-54
2023/04/06 05:49:27;;;;;;;0.90;0.90;;;;;;;;;;5049920;28;20825;-54
2023/04/06 05:51:53;;;;;;;0.93;0.93;;;;;;;;;;5052546;28;20237;-55
2023/04/06 05:54:19;;;;;;;0.90;0.90;;;;;;;;;;5048036;28;20705;-54
2023/04/06 05:56:45;;;;;;;1.00;1.00;;;;;;;;;;5043549;28;20230;-54
2023/04/06 05:59:11;;;;;;;1.23;1.23;;;;;;;;;;5053705;28;20195;-54
2023/04/06 06:01:37;;;;;;;1.10;1.10;;;;;;;;;;5045292;28;21525;-54
2023/04/06 06:04:03;;;;;;;1.10;1.10;;;;;;;;;;5050904;28;20217;-54
2023/04/06 06:06:30;;;;;;;1.00;1.00;;;;;;;;;;5046412;28;20273;-54
2023/04/06 06:08:58;;;;;;;0.90;0.90;;;;;;;;;;5045737;28;20258;-55
2023/04/06 06:11:25;;;;;;;0.90;0.90;;;;;;;;;;5053968;28;20701;-54
2023/04/06 06:13:51;;;;;;;1.00;1.00;;;;;;;;;;5044568;28;20246;-54
2023/04/06 06:16:17;;;;;;;0.90;0.90;;;;;;;;;;5045094;28;25563;-54
2023/04/06 06:18:43;;;;;;;1.13;1.13;;;;;;;;;;5041346;28;20670;-54
2023/04/06 06:21:11;;;;;;;0.90;0.90;;;;;;;;;;5055115;28;20195;-54
2023/04/06 06:23:37;;;;;;;1.00;1.00;;;;;;;;;;5047269;28;20195;-54
2023/04/06 06:26:04;;;;;;;1.00;1.00;;;;;;;;;;5042492;28;20191;-54
2023/04/06 06:28:30;;;;;;;0.90;0.90;;;;;;;;;;5033917;28;20261;-54
2023/04/06 06:30:56;;;;;;;0.87;0.87;;;;;;;;;;5046347;28;20195;-54
2023/04/06 06:33:22;;;;;;;0.90;0.90;;;;;;;;;;5048303;28;20195;-54
2023/04/06 06:35:48;;;;;;;0.90;0.90;;;;;;;;;;5052897;28;20909;-54
2023/04/06 06:38:14;;;;;;;1.00;1.00;;;;;;;;;;5049180;28;20256;-53
2023/04/06 06:40:40;;;;;;;1.00;1.00;;;;;;;;;;5046092;28;20195;-54
2023/04/06 06:43:06;;;;;;;0.93;0.93;;;;;;;;;;5059329;28;20353;-54
2023/04/06 06:45:32;;;;;;;0.90;0.90;;;;;;;;;;5046972;28;20209;-54
2023/04/06 06:47:58;;;;;;;0.90;0.90;;;;;;;;;;5037341;28;20219;-54
2023/04/06 06:50:24;;;;;;;1.00;1.00;;;;;;;;;;5047106;28;20769;-54
2023/04/06 06:52:50;;;;;;;0.93;0.93;;;;;;;;;;5041741;28;20599;-54
2023/04/06 06:55:18;;;;;;;1.10;1.10;;;;;;;;;;5044075;28;20609;-54
2023/04/06 06:57:46;;;;;;;0.90;0.90;;;;;;;;;;5050278;28;20691;-58
2023/04/06 07:00:13;;;;;;;1.00;1.00;;;;;;;;;;5048632;28;20245;-53
2023/04/06 07:02:39;;;;;;;0.90;0.90;;;;;;;;;;5052833;28;20648;-54
2023/04/06 07:05:05;;;;;;;1.30;1.30;;;;;;;;;;5056900;28;20203;-54
2023/04/06 07:07:34;;;;;;;1.23;1.23;;;;;;;;;;5047627;28;22011;-55
2023/04/06 07:10:00;;;;;;;0.80;0.80;;;;;;;;;;5008914;28;20229;-57
2023/04/06 07:12:26;;;;;;;1.00;1.00;;;;;;;;;;5007332;28;20189;-54
2023/04/06 07:14:52;;;;;;;1.30;1.30;;;;;;;;;;5002592;28;20272;-56
2023/04/06 07:17:18;;;;;;;1.50;1.50;;;;;;;;;;5011350;28;20752;-55
2023/04/06 07:19:45;;;;;;;1.30;1.30;;;;;;;;;;5002802;28;21000;-54
2023/04/06 07:22:11;;;;;;;2.10;2.00;;;;;;;;;;5007765;28;20252;-53
2023/04/06 07:24:37;;;;;;;1.90;1.80;;;;;;;;;;5009435;28;20764;-54
2023/04/06 07:27:03;;;;;;;1.50;1.50;;;;;;;;;;5004067;28;20197;-54
2023/04/06 07:29:29;;;;;;;1.90;1.80;;;;;;;;;;5013192;28;20701;-53
2023/04/06 07:31:55;;;;;;;1.90;1.80;;;;;;;;;;5012902;28;20634;-54
2023/04/06 07:34:21;;;;;;;1.67;1.67;;;;;;;;;;5020263;28;20222;-54
2023/04/06 07:36:47;;;;;;;1.70;1.70;;;;;;;;;;5007461;28;22210;-54
2023/04/06 07:39:14;;;;;;;2.07;1.97;;;;;;;;;;5017453;28;20220;-55
2023/04/06 07:41:40;;;;;;;1.90;1.80;;;;;;;;;;5047845;28;20209;-54
2023/04/06 07:44:06;;;;;;;2.17;2.07;;;;;;;;;;5006204;28;20194;-54
2023/04/06 07:46:32;;;;;;;1.90;1.80;;;;;;;;;;5014170;28;21176;-54
2023/04/06 07:48:58;;;;;;;2.30;2.20;;;;;;;;;;5011228;28;20220;-54
2023/04/06 07:51:25;;;;;;;2.30;2.20;;;;;;;;;;5014615;28;20189;-54
2023/04/06 07:53:51;;;;;;;2.27;2.17;;;;;;;;;;5017058;28;20193;-54
2023/04/06 07:56:17;;;;;;;2.10;2.00;;;;;;;;;;5016071;28;20198;-53
2023/04/06 07:58:43;;;;;;;1.00;1.00;;;;;;;;;;5004688;28;20243;-54
2023/04/06 08:01:09;;;;;;;1.60;1.60;;;;;;;;;;5012999;28;20193;-54
2023/04/06 08:03:35;;;;;;;2.30;2.20;;;;;;;;;;4997429;28;21325;-54
2023/04/06 08:06:02;;;;;;;2.13;2.03;;;;;;;;;;5015472;28;20205;-54
2023/04/06 08:08:28;;;;;;;1.80;1.70;;;;;;;;;;5020811;28;20231;-54
2023/04/06 08:10:54;;;;;;;1.90;1.80;;;;;;;;;;5039638;28;20588;-54
2023/04/06 08:13:20;;;;;;;1.20;1.20;;;;;;;;;;5048795;28;20220;-54
2023/04/06 08:15:46;;;;;;;1.70;1.70;;;;;;;;;;5046474;28;20272;-54
2023/04/06 08:18:12;;;;;;;1.10;1.10;;;;;;;;;;5044005;28;20675;-54
2023/04/06 08:20:38;;;;;;;1.50;1.50;;;;;;;;;;5044739;28;20187;-54
2023/04/06 08:23:15;;;;;;;1.10;1.10;;;;;;;;;;5041757;28;20191;-54
2023/04/06 08:25:41;;;;;;;1.00;1.00;;;;;;;;;;5040633;28;20200;-54
2023/04/06 08:28:08;;;;;;;0.90;0.90;;;;;;;;;;5046893;28;20233;-57
2023/04/06 08:30:34;;;;;;;0.70;0.70;;;;;;;;;;5042232;28;20820;-54
2023/04/06 08:33:00;;;;;;;0.90;0.90;;;;;;;;;;5047854;28;20195;-54
2023/04/06 08:35:26;;;;;;;0.70;0.70;;;;;;;;;;5050445;28;20195;-53
2023/04/06 08:37:52;;;;;;;0.70;0.70;;;;;;;;;;5049582;28;21119;-54
2023/04/06 08:40:19;;;;;;;1.23;1.23;;;;;;;;;;5024992;28;20187;-54
2023/04/06 08:42:45;;;;;;;1.40;1.40;;;;;;;;;;5043353;28;20199;-54
2023/04/06 08:45:11;;;;;;;1.10;1.10;;;;;;;;;;5033022;28;20597;-54
2023/04/06 08:47:37;;;;;;;0.70;0.70;;;;;;;;;;5056567;28;20195;-53
2023/04/06 08:50:04;;;;;;;1.20;1.20;;;;;;;;;;5039254;28;20287;-54
2023/04/06 08:52:30;;;;;;;1.00;1.00;;;;;;;;;;5039555;28;20187;-54
2023/04/06 08:54:56;;;;;;;1.00;1.00;;;;;;;;;;5025987;28;20245;-54
2023/04/06 08:57:23;;;;;;;0.90;0.90;;;;;;;;;;5047380;28;20234;-55
2023/04/06 08:59:49;;;;;;;0.77;0.77;;;;;;;;;;5063967;28;20199;-54
2023/04/06 09:02:17;;;;;;;1.30;1.30;;;;;;;;;;5047027;28;20655;-53
2023/04/06 09:04:43;;;;;;;1.00;1.00;;;;;;;;;;5044028;28;20192;-55
2023/04/06 09:07:09;;;;;;;0.80;0.80;;;;;;;;;;5042936;28;20196;-55
2023/04/06 09:09:35;;;;;;;1.10;1.10;;;;;;;;;;5032925;28;20656;-54
2023/04/06 09:12:05;;;;;;;1.27;1.27;;;;;;;;;;5050147;28;20203;-54
2023/04/06 09:14:36;;;;;;;1.50;1.50;;;;;;;;;;5046989;28;20199;-58
2023/04/06 09:17:02;;;;;;;1.30;1.30;;;;;;;;;;5048499;28;20198;-54
2023/04/06 09:19:28;;;;;;;1.00;1.00;;;;;;;;;;5041211;28;20192;-58
2023/04/06 09:22:09;;;;;;;1.10;1.10;;;;;;;;;;5057691;28;20180;-54
2023/04/06 09:24:44;;;;;;;0.90;0.90;;;;;;;;;;5046997;28;20183;-54
2023/04/06 09:27:10;;;;;;;0.87;0.87;;;;;;;;;;5047787;28;20723;-55
2023/04/06 09:29:37;;;;;;;0.70;0.70;;;;;;;;;;5047079;28;20243;-54
2023/04/06 09:32:04;;;;;;;1.00;1.00;;;;;;;;;;5053230;28;20557;-55
2023/04/06 09:34:30;;;;;;;1.10;1.10;;;;;;;;;;5052424;28;20770;-55
2023/04/06 09:36:56;;;;;;;1.30;1.30;;;;;;;;;;5046132;28;20234;-54
2023/04/06 09:39:23;;;;;;;1.00;1.00;;;;;;;;;;5047122;28;20559;-55
2023/04/06 09:41:50;;;;;;;1.10;1.10;;;;;;;;;;5055537;28;20216;-54
2023/04/06 09:44:16;;;;;;;1.20;1.20;;;;;;;;;;5059669;28;20203;-54
2023/04/06 09:46:42;;;;;;;0.88;0.88;;;;;;;;;;5045324;28;20195;-54
2023/04/06 09:49:09;;;;;;;1.10;1.10;;;;;;;;;;5066460;28;20691;-54
2023/04/06 09:51:39;;;;;;;1.35;1.35;;;;;;;;;;5047991;28;20237;-53
2023/04/06 09:54:05;;;;;;;1.40;1.40;;;;;;;;;;5045849;28;20187;-54
2023/04/06 09:56:32;;;;;;;1.20;1.20;;;;;;;;;;5047872;28;20282;-53
2023/04/06 09:59:03;;;;;;;0.90;0.90;;;;;;;;;;5050031;28;20201;-53
2023/04/06 10:01:30;;;;;;;1.35;1.35;;;;;;;;;;5051331;28;20217;-53
2023/04/06 10:04:28;;;;;;;1.27;1.27;;;;;;;;;;5041389;28;20196;-54
2023/04/06 10:06:55;;;;;;;0.90;0.90;;;;;;;;;;5008494;28;20195;-53
2023/04/06 10:09:22;;;;;;;1.20;1.20;;;;;;;;;;5054083;28;20802;-53
2023/04/06 10:11:49;;;;;;;1.20;1.20;;;;;;;;;;5024814;28;20675;-56
2023/04/06 10:14:15;;;;;;;1.30;1.30;;;;;;;;;;5045728;28;20204;-52
2023/04/06 10:16:41;;;;;;;1.20;1.20;;;;;;;;;;5024520;28;20226;-52
2023/04/06 10:19:10;;;;;;;1.20;1.20;;;;;;;;;;5039006;28;20193;-52
2023/04/06 10:21:36;;;;;;;1.30;1.30;;;;;;;;;;5060977;28;20184;-52
2023/04/06 10:24:02;;;;;;;1.30;1.30;;;;;;;;;;5025375;28;20185;-52
2023/04/06 10:26:28;;;;;;;1.20;1.20;;;;;;;;;;5023339;28;20191;-52
2023/04/06 10:28:55;;;;;;;1.40;1.40;;;;;;;;;;5026503;28;20879;-53
2023/04/06 10:31:27;;;;;;;1.30;1.30;;;;;;;;;;5026129;28;20192;-52
2023/04/06 10:34:02;;;;;;;1.30;1.30;;;;;;;;;;5031617;28;20229;-52
2023/04/06 10:36:29;;;;;;;1.30;1.30;;;;;;;;;;5030285;28;20181;-53
2023/04/06 10:38:57;;;;;;;1.40;1.40;;;;;;;;;;5041034;28;20243;-53
2023/04/06 10:41:23;;;;;;;1.20;1.20;;;;;;;;;;5028439;28;20231;-53
2023/04/06 10:43:55;;;;;;;1.40;1.40;;;;;;;;;;5024891;28;20553;-52
2023/04/06 10:46:25;;;;;;;1.30;1.30;;;;;;;;;;5026137;28;20407;-53
2023/04/06 10:48:51;;;;;;;1.20;1.20;;;;;;;;;;5026914;28;20208;-52
2023/04/06 10:51:18;;;;;;;1.10;1.10;;;;;;;;;;5031889;28;20184;-53
2023/04/06 10:53:48;;;;;;;1.27;1.27;;;;;;;;;;5030736;28;20187;-52
2023/04/06 10:56:15;;;;;;;1.20;1.20;;;;;;;;;;5030717;28;20181;-52
2023/04/06 10:58:47;;;;;;;1.20;1.20;;;;;;;;;;5016148;28;20207;-57
2023/04/06 11:01:13;;;;;;;1.50;1.50;;;;;;;;;;5016817;28;20655;-52
2023/04/06 11:03:52;;;;;;;1.30;1.30;;;;;;;;;;5019267;28;20201;-52
2023/04/06 11:06:29;;;;;;;1.45;1.45;;;;;;;;;;5007784;28;20676;-52
2023/04/06 11:08:55;;;;;;;1.40;1.40;;;;;;;;;;5030883;28;20677;-54
2023/04/06 11:11:21;;;;;;;1.40;1.40;;;;;;;;;;5046046;28;20188;-52
2023/04/06 11:14:00;;;;;;;1.50;1.50;;;;;;;;;;5041485;28;20278;-53
2023/04/06 11:16:35;;;;;;;1.50;1.50;;;;;;;;;;5038403;28;20584;-53
2023/04/06 11:19:02;;;;;;;1.40;1.40;;;;;;;;;;5037762;28;21339;-55
2023/04/06 11:21:46;;;;;;;1.50;1.50;;;;;;;;;;5034565;28;20183;-53
2023/04/06 11:24:22;;;;;;;1.40;1.40;;;;;;;;;;5047567;28;20215;-53
2023/04/06 11:26:51;;;;;;;1.40;1.40;;;;;;;;;;5022090;28;21259;-54
2023/04/06 11:29:26;;;;;;;1.30;1.30;;;;;;;;;;4995315;28;20223;-54
2023/04/06 11:31:59;;;;;;;1.30;1.30;;;;;;;;;;5020273;28;20263;-54
2023/04/06 11:34:25;;;;;;;1.30;1.30;;;;;;;;;;5050419;28;20552;-54
2023/04/06 11:36:56;;;;;;;1.40;1.40;;;;;;;;;;5045258;28;20180;-54
2023/04/06 11:39:26;;;;;;;1.30;1.30;;;;;;;;;;5055239;28;20265;-54
2023/04/06 11:41:52;;;;;;;1.30;1.30;;;;;;;;;;5051969;28;20637;-54
2023/04/06 11:44:33;;;;;;;1.40;1.40;;;;;;;;;;5054627;28;20215;-54
2023/04/06 11:46:59;;;;;;;1.30;1.30;;;;;;;;;;5051867;28;20189;-54
2023/04/06 11:49:29;;;;;;;1.40;1.40;;;;;;;;;;5044396;28;20253;-54
2023/04/06 11:51:55;;;;;;;1.40;1.40;;;;;;;;;;5044654;28;20666;-54
2023/04/06 11:54:31;;;;;;;1.40;1.40;;;;;;;;;;5036561;28;20552;-54
2023/04/06 11:56:57;;;;;;;1.42;1.42;;;;;;;;;;5046425;28;20775;-56
2023/04/06 11:59:23;;;;;;;1.38;1.38;;;;;;;;;;5047172;28;20188;-54
2023/04/06 12:01:49;;;;;;;1.40;1.40;;;;;;;;;;5043942;28;20195;-54
2023/04/06 12:04:15;;;;;;;1.35;1.35;;;;;;;;;;5024247;28;20187;-54
2023/04/06 12:06:41;;;;;;;1.10;1.10;;;;;;;;;;5043749;28;20567;-53
2023/04/06 12:09:07;;;;;;;1.10;1.10;;;;;;;;;;5032553;28;20232;-54
2023/04/06 12:11:33;;;;;;;1.20;1.20;;;;;;;;;;5040614;28;20196;-54
2023/04/06 12:14:01;;;;;;;1.40;1.40;;;;;;;;;;5049957;28;20832;-55
2023/04/06 12:16:27;;;;;;;1.37;1.37;;;;;;;;;;5045262;28;20270;-55
2023/04/06 12:18:53;;;;;;;1.40;1.40;;;;;;;;;;5042603;28;20194;-56
2023/04/06 12:21:19;;;;;;;1.40;1.40;;;;;;;;;;5050781;28;20192;-55
2023/04/06 12:23:45;;;;;;;1.30;1.30;;;;;;;;;;5044618;28;20278;-57
2023/04/06 12:26:11;;;;;;;1.43;1.43;;;;;;;;;;5032514;28;20397;-57
2023/04/06 12:28:37;;;;;;;1.57;1.57;;;;;;;;;;5045200;28;20233;-57
2023/04/06 12:31:03;;;;;;;1.40;1.40;;;;;;;;;;5048793;28;20277;-56
2023/04/06 12:33:29;;;;;;;1.50;1.50;;;;;;;;;;5052135;28;20685;-57
2023/04/06 12:35:56;;;;;;;1.40;1.40;;;;;;;;;;5050699;28;20187;-57
2023/04/06 12:38:22;;;;;;;1.37;1.37;;;;;;;;;;5042910;28;20238;-57
2023/04/06 12:40:48;;;;;;;1.40;1.40;;;;;;;;;;5042308;28;20197;-56
2023/04/06 12:43:14;;;;;;;1.50;1.50;;;;;;;;;;5040420;28;20219;-57
2023/04/06 12:45:40;;;;;;;1.40;1.40;;;;;;;;;;5037523;28;20723;-56
2023/04/06 12:48:06;;;;;;;1.23;1.23;;;;;;;;;;5039681;28;20348;-57
2023/04/06 12:50:33;;;;;;;1.40;1.40;;;;;;;;;;5038665;28;20230;-57
2023/04/06 12:52:58;;;;;;;1.40;1.40;;;;;;;;;;5045142;28;20203;-57
2023/04/06 12:55:24;;;;;;;1.30;1.30;;;;;;;;;;5045030;28;20188;-56
2023/04/06 12:57:50;;;;;;;1.43;1.43;;;;;;;;;;5036939;28;20240;-57
2023/04/06 13:00:17;;;;;;;1.40;1.40;;;;;;;;;;5036750;28;20653;-56
2023/04/06 13:02:46;;;;;;;1.43;1.43;;;;;;;;;;5034648;28;20222;-57
2023/04/06 13:05:12;;;;;;;1.40;1.40;;;;;;;;;;5037150;28;20190;-57
2023/04/06 13:07:38;;;;;;;1.60;1.60;;;;;;;;;;5041223;28;20196;-57
2023/04/06 13:10:05;;;;;;;1.63;1.63;;;;;;;;;;5041825;28;20218;-56
2023/04/06 13:12:31;;;;;;;1.40;1.40;;;;;;;;;;5041119;28;20515;-59
2023/04/06 13:14:57;;;;;;;1.43;1.43;;;;;;;;;;5020909;28;20222;-58
2023/04/06 13:17:23;;;;;;;1.60;1.60;;;;;;;;;;5033222;28;20245;-55
2023/04/06 13:19:49;;;;;;;1.40;1.40;;;;;;;;;;5031732;28;20232;-55
2023/04/06 13:22:15;;;;;;;1.40;1.40;;;;;;;;;;5016937;28;20321;-55
2023/04/06 13:24:41;;;;;;;1.40;1.40;;;;;;;;;;5039642;28;20271;-55
2023/04/06 13:27:07;;;;;;;1.30;1.30;;;;;;;;;;5037763;28;20651;-55
2023/04/06 13:29:34;;;;;;;1.40;1.40;;;;;;;;;;5041818;28;20686;-55
2023/04/06 13:32:00;;;;;;;1.30;1.30;;;;;;;;;;5040489;28;20180;-55
2023/04/06 13:34:26;;;;;;;1.50;1.50;;;;;;;;;;5032488;28;20188;-55
2023/04/06 13:36:52;;;;;;;1.40;1.40;;;;;;;;;;5045937;28;20194;-56
2023/04/06 13:39:18;;;;;;;1.50;1.50;;;;;;;;;;5039592;28;20656;-54
2023/04/06 13:41:44;;;;;;;1.60;1.60;;;;;;;;;;5042960;28;20200;-55
2023/04/06 13:44:10;;;;;;;1.60;1.60;;;;;;;;;;5023718;28;20275;-54
2023/04/06 13:46:37;;;;;;;1.77;1.70;;;;;;;;;;5034516;28;20554;-55
2023/04/06 13:49:03;;;;;;;1.50;1.50;;;;;;;;;;5036451;28;20614;-55
2023/04/06 13:51:29;;;;;;;1.40;1.40;;;;;;;;;;5033622;28;20376;-55
2023/04/06 13:53:55;;;;;;;1.40;1.40;;;;;;;;;;5041673;28;20233;-54
2023/04/06 13:56:20;;;;;;;1.50;1.50;;;;;;;;;;5035853;28;20601;-55
2023/04/06 13:58:47;;;;;;;1.40;1.40;;;;;;;;;;5044092;28;20202;-57
2023/04/06 14:01:13;;;;;;;1.30;1.30;;;;;;;;;;5012337;28;20620;-54
2023/04/06 14:03:41;;;;;;;1.23;1.23;;;;;;;;;;5045444;28;20191;-54
2023/04/06 14:06:13;;;;;;;1.30;1.30;;;;;;;;;;5052763;28;20195;-55
2023/04/06 14:08:39;;;;;;;1.50;1.50;;;;;;;;;;5053697;28;20244;-54
2023/04/06 14:11:07;;;;;;;1.30;1.30;;;;;;;;;;5043184;28;20255;-55
2023/04/06 14:13:33;;;;;;;1.43;1.43;;;;;;;;;;5048395;28;20547;-55
2023/04/06 14:16:00;;;;;;;1.40;1.40;;;;;;;;;;5052869;28;20192;-54
2023/04/06 14:18:30;;;;;;;1.30;1.30;;;;;;;;;;5055244;28;20190;-54
2023/04/06 14:20:56;;;;;;;1.40;1.40;;;;;;;;;;5049935;28;20194;-54
2023/04/06 14:23:22;;;;;;;1.10;1.10;;;;;;;;;;5051256;28;20696;-55
2023/04/06 14:25:48;;;;;;;1.30;1.30;;;;;;;;;;5053895;28;20198;-56
2023/04/06 14:28:15;;;;;;;1.50;1.50;;;;;;;;;;5048178;28;20565;-55
2023/04/06 14:30:40;;;;;;;1.50;1.50;;;;;;;;;;5047348;28;20176;-55
2023/04/06 14:33:07;;;;;;;1.40;1.40;;;;;;;;;;5049217;28;20180;-57
2023/04/06 14:35:32;;;;;;;1.40;1.40;;;;;;;;;;5049950;28;20179;-55
2023/04/06 14:37:59;;;;;;;1.40;1.40;;;;;;;;;;5055300;28;20200;-54
2023/04/06 14:40:25;;;;;;;1.30;1.30;;;;;;;;;;5052327;28;20723;-56